La Rinconada, Spain
Current Conditions -  °F | °C
As of 3:30 PM on Wednesday 22 Oct 2014 (Local Time) from LEZL Reporting Station
Clear Clear  
Wind Chill: 88°   Ceiling: Unl
Heat Index: 88°   Visibility: 6mi
Dew Point: 54°   Wind: 6mph
Humidity: 31%   Direction: 60°ENE
Pressure: 30.18"   Gusts: NA
Location:  37.49°N, 5.98°W
Report Text: LEZL 221330Z 06005KT 010V090 CAVOK 31/12 Q1022 NOSIG
Loading
Personal Weather Stations






























Interactive Weather Map
Tropical Storm Tracking
New forecast layout! Learn more

10-Day Weather Forecast

Advertisements
Track Severe Weather on mobile